Time,TemperatureF,DewpointF,PressureIn,WindDirection,WindDirectionDegrees,WindSpeedMPH,WindSpeedGustMPH,Humidity,HourlyPrecipIn,Conditions,Clouds,dailyrainin,SoftwareType,DateUTC
2013-12-26 00:01:00,66.3,57.0,29.96,ENE,68,0.0,0.0,72,0.00,,---,0.00,VWS V14.00,2013-12-26 05:01:00,
2013-12-26 00:06:00,66.3,57.0,29.96,East,90,0.0,0.0,72,0.00,,---,0.00,VWS V14.00,2013-12-26 05:06:00,
2013-12-26 00:11:00,66.3,57.0,29.96,ENE,68,0.0,0.0,72,0.00,,---,0.00,VWS V14.00,2013-12-26 05:11:00,
2013-12-26 00:16:00,66.3,57.0,29.96,NE,45,0.0,0.0,72,0.00,,---,0.00,VWS V14.00,2013-12-26 05:16:00,
2013-12-26 00:21:00,66.3,57.0,29.97,NE,45,0.0,0.0,72,0.00,,---,0.00,VWS V14.00,2013-12-26 05:21:00,
2013-12-26 00:26:00,66.3,57.0,29.97,ENE,68,0.0,0.0,72,0.00,,---,0.00,VWS V14.00,2013-12-26 05:26:00,
2013-12-26 00:31:00,66.3,57.4,29.97,ENE,68,3.5,3.5,73,0.00,,---,0.00,VWS V14.00,2013-12-26 05:31:00,
2013-12-26 00:36:00,66.2,57.3,29.97,ENE,68,0.0,0.0,73,0.00,,---,0.00,VWS V14.00,2013-12-26 05:36:00,
2013-12-26 00:41:00,66.0,57.1,29.96,ENE,68,1.1,1.1,73,0.00,,---,0.00,VWS V14.00,2013-12-26 05:41:00,
2013-12-26 00:46:00,66.0,57.1,29.96,ENE,68,2.4,2.4,73,0.00,,---,0.00,VWS V14.00,2013-12-26 05:46:00,
2013-12-26 00:51:00,66.0,57.1,29.97,East,90,0.0,0.0,73,0.00,,---,0.00,VWS V14.00,2013-12-26 05:51:00,
2013-12-26 00:56:00,65.8,56.9,29.97,ENE,68,0.0,0.0,73,0.00,,---,0.00,VWS V14.00,2013-12-26 05:56:00,
2013-12-26 01:01:00,65.8,56.9,29.97,ENE,68,0.4,0.4,73,0.00,,---,0.00,VWS V14.00,2013-12-26 06:01:00,
2013-12-26 01:06:00,65.6,56.7,29.97,ENE,68,1.5,1.5,73,0.00,,---,0.00,VWS V14.00,2013-12-26 06:06:00,
2013-12-26 01:11:00,65.4,56.5,29.97,ENE,68,1.5,1.5,73,0.00,,---,0.00,VWS V14.00,2013-12-26 06:11:00,
2013-12-26 01:16:00,65.4,56.5,29.97,ENE,68,0.0,0.0,73,0.00,,---,0.00,VWS V14.00,2013-12-26 06:16:00,
2013-12-26 01:21:00,65.4,56.5,29.96,North,0,0.0,0.0,73,0.00,,---,0.00,VWS V14.00,2013-12-26 06:21:00,
2013-12-26 01:26:00,65.4,56.5,29.97,ENE,68,0.0,0.0,73,0.00,,---,0.00,VWS V14.00,2013-12-26 06:26:00,
2013-12-26 01:31:00,65.4,56.5,29.96,ENE,68,2.2,2.2,73,0.00,,---,0.00,VWS V14.00,2013-12-26 06:31:00,
2013-12-26 01:36:00,65.3,56.8,29.96,ENE,68,2.0,2.0,74,0.00,,---,0.00,VWS V14.00,2013-12-26 06:36:00,
2013-12-26 01:41:00,65.1,56.6,29.95,ENE,68,4.0,4.0,74,0.00,,---,0.00,VWS V14.00,2013-12-26 06:41:00,
2013-12-26 01:46:00,65.1,56.6,29.96,ENE,68,0.0,0.0,74,0.00,,---,0.00,VWS V14.00,2013-12-26 06:46:00,
2013-12-26 01:51:00,64.9,56.4,29.96,NE,45,2.4,2.4,74,0.00,,---,0.00,VWS V14.00,2013-12-26 06:51:00,
2013-12-26 01:56:00,64.9,56.4,29.97,East,90,0.8,0.8,74,0.00,,---,0.00,VWS V14.00,2013-12-26 06:56:00,
2013-12-26 02:01:00,64.7,56.6,29.96,ESE,112,1.5,1.5,75,0.00,,---,0.00,VWS V14.00,2013-12-26 07:01:00,
2013-12-26 02:06:00,64.5,56.4,29.97,ENE,68,0.0,0.0,75,0.00,,---,0.00,VWS V14.00,2013-12-26 07:06:00,
2013-12-26 02:11:00,64.5,56.4,29.97,ENE,68,0.6,0.6,75,0.00,,---,0.00,VWS V14.00,2013-12-26 07:11:00,
2013-12-26 02:16:00,64.5,56.4,29.96,ENE,68,4.9,4.9,75,0.00,,---,0.00,VWS V14.00,2013-12-26 07:16:00,
2013-12-26 02:21:00,64.5,56.8,29.96,ENE,68,0.0,0.0,76,0.00,,---,0.00,VWS V14.00,2013-12-26 07:21:00,
2013-12-26 02:26:00,64.2,56.5,29.96,ENE,68,1.7,1.7,76,0.00,,---,0.00,VWS V14.00,2013-12-26 07:26:00,
2013-12-26 02:31:00,64.2,56.5,29.95,ESE,112,1.1,1.1,76,0.00,,---,0.00,VWS V14.00,2013-12-26 07:31:00,
2013-12-26 02:36:00,64.2,56.5,29.96,ESE,112,0.0,0.0,76,0.00,,---,0.00,VWS V14.00,2013-12-26 07:36:00,
2013-12-26 02:41:00,64.2,56.5,29.95,ENE,68,0.0,0.0,76,0.00,,---,0.00,VWS V14.00,2013-12-26 07:41:00,
2013-12-26 02:46:00,64.0,56.7,29.96,NE,45,2.2,2.2,77,0.00,,---,0.00,VWS V14.00,2013-12-26 07:46:00,
2013-12-26 02:51:00,64.0,56.7,29.96,ENE,68,1.5,1.5,77,0.00,,---,0.00,VWS V14.00,2013-12-26 07:51:00,
2013-12-26 02:56:00,63.6,56.6,29.96,ENE,68,1.7,1.7,78,0.00,,---,0.00,VWS V14.00,2013-12-26 07:56:00,
2013-12-26 03:00:00,63.6,56.6,29.96,ENE,68,1.5,1.5,78,0.00,,---,0.00,VWS V14.00,2013-12-26 08:00:00,
2013-12-26 03:05:00,63.5,56.5,29.96,NE,45,2.9,2.9,78,0.00,,---,0.00,VWS V14.00,2013-12-26 08:05:00,
2013-12-26 03:10:00,63.5,56.5,29.96,NE,45,0.0,0.0,78,0.00,,---,0.00,VWS V14.00,2013-12-26 08:10:00,
2013-12-26 03:15:00,63.3,56.7,29.96,ENE,68,0.0,0.0,79,0.00,,---,0.00,VWS V14.00,2013-12-26 08:15:00,
2013-12-26 03:20:00,63.3,56.7,29.96,ENE,68,0.0,0.0,79,0.00,,---,0.00,VWS V14.00,2013-12-26 08:20:00,
2013-12-26 03:25:00,63.3,56.7,29.96,ENE,68,0.0,0.0,79,0.00,,---,0.00,VWS V14.00,2013-12-26 08:25:00,
2013-12-26 03:30:00,63.3,57.0,29.96,NE,45,3.8,3.8,80,0.00,,---,0.00,VWS V14.00,2013-12-26 08:30:00,
2013-12-26 03:35:00,63.1,56.8,29.96,ENE,68,2.6,2.6,80,0.00,,---,0.00,VWS V14.00,2013-12-26 08:35:00,
2013-12-26 03:40:00,63.1,56.8,29.96,NE,45,2.2,2.2,80,0.00,,---,0.00,VWS V14.00,2013-12-26 08:40:00,
2013-12-26 03:45:00,63.1,56.8,29.96,NE,45,0.0,0.0,80,0.00,,---,0.00,VWS V14.00,2013-12-26 08:45:00,
2013-12-26 03:50:00,63.1,56.8,29.96,ENE,68,2.4,2.4,80,0.00,,---,0.00,VWS V14.00,2013-12-26 08:50:00,
2013-12-26 03:55:00,63.1,56.8,29.96,ENE,68,1.5,1.5,80,0.00,,---,0.00,VWS V14.00,2013-12-26 08:55:00,
2013-12-26 04:00:00,63.1,56.8,29.96,NE,45,1.1,1.1,80,0.00,,---,0.00,VWS V14.00,2013-12-26 09:00:00,
2013-12-26 04:05:00,63.1,56.8,29.96,NNE,22,0.0,0.0,80,0.00,,---,0.00,VWS V14.00,2013-12-26 09:05:00,
2013-12-26 04:10:00,63.1,57.2,29.96,ENE,68,3.5,3.5,81,0.00,,---,0.00,VWS V14.00,2013-12-26 09:10:00,
2013-12-26 04:15:00,62.9,57.0,29.97,NE,45,3.3,3.3,81,0.00,,---,0.00,VWS V14.00,2013-12-26 09:15:00,
2013-12-26 04:20:00,62.9,57.0,29.96,ENE,68,2.6,2.6,81,0.00,,---,0.00,VWS V14.00,2013-12-26 09:20:00,
2013-12-26 04:25:00,62.7,56.8,29.96,ENE,68,0.0,0.0,81,0.00,,---,0.00,VWS V14.00,2013-12-26 09:25:00,
2013-12-26 04:30:00,62.7,57.1,29.96,ENE,68,1.5,1.5,82,0.00,,---,0.00,VWS V14.00,2013-12-26 09:30:00,
2013-12-26 04:35:00,62.7,57.1,29.96,ENE,68,4.2,4.2,82,0.00,,---,0.00,VWS V14.00,2013-12-26 09:35:00,
2013-12-26 04:40:00,62.6,57.0,29.96,ENE,68,2.2,2.2,82,0.00,,---,0.00,VWS V14.00,2013-12-26 09:40:00,
2013-12-26 04:45:00,62.6,57.0,29.96,NE,45,0.0,0.0,82,0.00,,---,0.00,VWS V14.00,2013-12-26 09:45:00,
2013-12-26 04:50:00,62.4,56.8,29.96,NE,45,0.0,0.0,82,0.00,,---,0.00,VWS V14.00,2013-12-26 09:50:00,
2013-12-26 04:55:00,62.4,56.8,29.96,NE,45,4.6,4.6,82,0.00,,---,0.00,VWS V14.00,2013-12-26 09:55:00,
2013-12-26 05:00:00,62.2,56.6,29.96,NE,45,2.4,2.4,82,0.00,,---,0.00,VWS V14.00,2013-12-26 10:00:00,
2013-12-26 05:05:00,62.2,57.0,29.96,NE,45,3.1,3.1,83,0.00,,---,0.00,VWS V14.00,2013-12-26 10:05:00,
2013-12-26 05:10:00,62.2,57.0,29.96,ENE,68,6.0,6.0,83,0.00,,---,0.00,VWS V14.00,2013-12-26 10:10:00,
2013-12-26 05:15:00,62.0,56.8,29.96,ENE,68,2.0,2.0,83,0.00,,---,0.00,VWS V14.00,2013-12-26 10:15:00,
2013-12-26 05:20:00,61.8,56.6,29.96,ENE,68,1.5,1.5,83,0.00,,---,0.00,VWS V14.00,2013-12-26 10:20:00,
2013-12-26 05:25:00,61.8,56.6,29.96,NE,45,1.7,1.7,83,0.00,,---,0.00,VWS V14.00,2013-12-26 10:25:00,
2013-12-26 05:30:00,61.8,56.6,29.96,ENE,68,0.0,0.0,83,0.00,,---,0.00,VWS V14.00,2013-12-26 10:30:00,
2013-12-26 05:35:00,61.8,56.6,29.96,ENE,68,4.0,4.0,83,0.00,,---,0.00,VWS V14.00,2013-12-26 10:35:00,
2013-12-26 05:40:00,61.7,56.8,29.96,ENE,68,4.9,4.9,84,0.00,,---,0.00,VWS V14.00,2013-12-26 10:40:00,
2013-12-26 05:45:00,61.5,56.6,29.96,ENE,68,2.9,2.9,84,0.00,,---,0.00,VWS V14.00,2013-12-26 10:45:00,
2013-12-26 05:50:00,61.5,56.6,29.97,NE,45,3.1,3.1,84,0.00,,---,0.00,VWS V14.00,2013-12-26 10:50:00,
2013-12-26 05:55:00,61.5,56.6,29.96,ENE,68,0.0,0.0,84,0.00,,---,0.00,VWS V14.00,2013-12-26 10:55:00,
2013-12-26 06:00:00,61.5,57.0,29.96,ENE,68,5.8,5.8,85,0.00,,---,0.00,VWS V14.00,2013-12-26 11:00:00,
2013-12-26 06:05:00,61.5,57.0,29.96,ENE,68,5.8,5.8,85,0.00,,---,0.00,VWS V14.00,2013-12-26 11:05:00,
2013-12-26 06:10:00,61.5,57.0,29.96,East,90,4.4,4.4,85,0.00,,---,0.00,VWS V14.00,2013-12-26 11:10:00,
2013-12-26 06:15:00,61.5,57.0,29.97,NE,45,2.0,2.0,85,0.00,,---,0.00,VWS V14.00,2013-12-26 11:15:00,
2013-12-26 06:20:00,61.5,57.0,29.97,ENE,68,1.7,1.7,85,0.00,,---,0.00,VWS V14.00,2013-12-26 11:20:00,
2013-12-26 06:25:00,61.5,57.0,29.97,ENE,68,1.7,1.7,85,0.00,,---,0.00,VWS V14.00,2013-12-26 11:25:00,
2013-12-26 06:30:00,61.5,57.0,29.97,ENE,68,3.8,3.8,85,0.00,,---,0.00,VWS V14.00,2013-12-26 11:30:00,
2013-12-26 06:35:00,61.5,57.0,29.97,ENE,68,2.4,2.4,85,0.00,,---,0.00,VWS V14.00,2013-12-26 11:35:00,
2013-12-26 06:40:00,61.5,57.0,29.97,East,90,0.0,0.0,85,0.00,,---,0.00,VWS V14.00,2013-12-26 11:40:00,
2013-12-26 06:45:00,61.5,57.0,29.97,NE,45,1.5,1.5,85,0.00,,---,0.00,VWS V14.00,2013-12-26 11:45:00,
2013-12-26 06:50:00,61.5,57.0,29.98,NE,45,1.7,1.7,85,0.00,,---,0.00,VWS V14.00,2013-12-26 11:50:00,
2013-12-26 06:55:00,61.3,56.8,29.98,ENE,68,0.0,0.0,85,0.00,,---,0.00,VWS V14.00,2013-12-26 11:55:00,
2013-12-26 07:00:00,61.3,56.8,29.98,ENE,68,0.0,0.0,85,0.00,,---,0.00,VWS V14.00,2013-12-26 12:00:00,
2013-12-26 07:05:00,61.3,56.8,29.98,NE,45,0.0,0.0,85,0.00,,---,0.00,VWS V14.00,2013-12-26 12:05:00,
2013-12-26 07:10:00,61.3,56.8,29.98,ENE,68,0.0,0.0,85,0.00,,---,0.00,VWS V14.00,2013-12-26 12:10:00,
2013-12-26 07:15:00,61.3,56.8,29.99,ENE,68,0.0,0.0,85,0.00,,---,0.00,VWS V14.00,2013-12-26 12:15:00,
2013-12-26 07:20:00,61.3,56.8,29.99,NE,45,1.7,1.7,85,0.00,,---,0.00,VWS V14.00,2013-12-26 12:20:00,
2013-12-26 07:25:00,61.3,57.1,29.99,ENE,68,0.6,0.6,86,0.00,,---,0.00,VWS V14.00,2013-12-26 12:25:00,
2013-12-26 07:30:00,61.3,57.1,29.99,ENE,68,2.0,2.0,86,0.00,,---,0.00,VWS V14.00,2013-12-26 12:30:00,
2013-12-26 07:35:00,61.5,57.3,30.00,East,90,0.0,0.0,86,0.00,,---,0.00,VWS V14.00,2013-12-26 12:35:00,
2013-12-26 07:40:00,61.5,57.3,29.99,ENE,68,0.0,0.0,86,0.00,,---,0.00,VWS V14.00,2013-12-26 12:40:00,
2013-12-26 07:45:00,61.7,57.5,29.99,ENE,68,2.4,2.4,86,0.00,,---,0.00,VWS V14.00,2013-12-26 12:45:00,
2013-12-26 07:50:00,61.7,57.5,29.99,ENE,68,0.0,0.0,86,0.00,,---,0.00,VWS V14.00,2013-12-26 12:50:00,
2013-12-26 07:55:00,61.8,57.6,30.00,NE,45,0.0,0.0,86,0.00,,---,0.00,VWS V14.00,2013-12-26 12:55:00,
2013-12-26 07:59:00,61.8,57.6,30.00,ENE,68,1.7,1.7,86,0.00,,---,0.00,VWS V14.00,2013-12-26 12:59:00,
2013-12-26 08:04:00,62.0,57.8,30.00,NE,45,2.2,2.2,86,0.00,,---,0.00,VWS V14.00,2013-12-26 13:04:00,
2013-12-26 08:09:00,62.0,57.8,30.00,NE,45,1.5,1.5,86,0.00,,---,0.00,VWS V14.00,2013-12-26 13:09:00,
2013-12-26 08:14:00,62.2,58.0,30.00,NE,45,4.0,4.0,86,0.00,,---,0.00,VWS V14.00,2013-12-26 13:14:00,
2013-12-26 08:19:00,62.4,57.8,30.00,NNE,22,0.0,0.0,85,0.00,,---,0.00,VWS V14.00,2013-12-26 13:19:00,
2013-12-26 08:24:00,62.4,58.2,30.00,NE,45,2.0,2.0,86,0.00,,---,0.00,VWS V14.00,2013-12-26 13:24:00,
2013-12-26 08:29:00,62.7,58.5,30.00,NE,45,2.0,2.0,86,0.00,,---,0.00,VWS V14.00,2013-12-26 13:29:00,
2013-12-26 08:34:00,62.7,58.5,30.01,NE,45,0.0,0.0,86,0.00,,---,0.00,VWS V14.00,2013-12-26 13:34:00,
2013-12-26 08:39:00,62.9,58.3,30.01,ENE,68,2.6,2.6,85,0.00,,---,0.00,VWS V14.00,2013-12-26 13:39:00,
2013-12-26 08:44:00,63.1,58.5,30.01,ENE,68,0.0,0.0,85,0.00,,---,0.00,VWS V14.00,2013-12-26 13:44:00,
2013-12-26 08:48:00,63.1,58.5,30.01,NE,45,0.0,0.0,85,0.00,,---,0.00,VWS V14.00,2013-12-26 13:48:00,
2013-12-26 08:53:00,63.3,58.7,30.01,ENE,68,0.0,0.0,85,0.00,,---,0.00,VWS V14.00,2013-12-26 13:53:00,
2013-12-26 08:58:00,63.5,58.9,30.01,NE,45,2.0,2.0,85,0.00,,---,0.00,VWS V14.00,2013-12-26 13:58:00,
2013-12-26 09:03:00,63.5,58.6,30.01,NE,45,1.3,1.3,84,0.00,,---,0.00,VWS V14.00,2013-12-26 14:03:00,
2013-12-26 09:08:00,63.6,58.7,30.01,ENE,68,0.0,0.0,84,0.00,,---,0.00,VWS V14.00,2013-12-26 14:08:00,
2013-12-26 09:13:00,63.6,58.7,30.02,ENE,68,0.0,0.0,84,0.00,,---,0.00,VWS V14.00,2013-12-26 14:13:00,
2013-12-26 09:18:00,64.0,59.1,30.01,ENE,68,0.0,0.0,84,0.00,,---,0.00,VWS V14.00,2013-12-26 14:18:00,
2013-12-26 09:23:00,64.2,59.3,30.01,ENE,68,0.0,0.0,84,0.00,,---,0.00,VWS V14.00,2013-12-26 14:23:00,
2013-12-26 09:28:00,64.5,59.2,30.01,ENE,68,0.0,0.0,83,0.00,,---,0.00,VWS V14.00,2013-12-26 14:28:00,
2013-12-26 09:33:00,64.7,59.4,30.02,ENE,68,0.0,0.0,83,0.00,,---,0.00,VWS V14.00,2013-12-26 14:33:00,
2013-12-26 09:38:00,65.1,59.8,30.01,NE,45,1.3,1.3,83,0.00,,---,0.00,VWS V14.00,2013-12-26 14:38:00,
2013-12-26 09:43:00,65.3,59.7,30.02,ENE,68,0.0,0.0,82,0.00,,---,0.00,VWS V14.00,2013-12-26 14:43:00,
2013-12-26 09:48:00,65.6,60.0,30.02,East,90,0.0,0.0,82,0.00,,---,0.00,VWS V14.00,2013-12-26 14:48:00,
2013-12-26 09:53:00,66.0,60.0,30.02,ENE,68,1.1,1.1,81,0.00,,---,0.00,VWS V14.00,2013-12-26 14:53:00,
2013-12-26 09:58:00,66.2,59.9,30.02,ESE,112,0.0,0.0,80,0.00,,---,0.00,VWS V14.00,2013-12-26 14:58:00,
2013-12-26 10:03:00,66.5,60.2,30.02,ESE,112,0.0,0.0,80,0.00,,---,0.00,VWS V14.00,2013-12-26 15:03:00,
2013-12-26 10:08:00,66.7,60.3,30.02,ENE,68,2.4,2.4,80,0.00,,---,0.00,VWS V14.00,2013-12-26 15:08:00,
2013-12-26 10:13:00,67.1,60.4,30.02,NE,45,2.6,2.6,79,0.00,,---,0.00,VWS V14.00,2013-12-26 15:13:00,
2013-12-26 10:18:00,67.2,60.5,30.02,ENE,68,3.3,3.3,79,0.00,,---,0.00,VWS V14.00,2013-12-26 15:18:00,
2013-12-26 10:23:00,67.8,60.7,30.01,NE,45,4.9,4.9,78,0.00,,---,0.00,VWS V14.00,2013-12-26 15:23:00,
2013-12-26 10:28:00,68.5,61.0,30.00,NE,45,1.7,1.7,77,0.00,,---,0.00,VWS V14.00,2013-12-26 15:28:00,
2013-12-26 10:33:00,68.9,61.4,30.00,ENE,68,9.1,9.1,77,0.00,,---,0.00,VWS V14.00,2013-12-26 15:33:00,
2013-12-26 10:38:00,69.0,61.1,30.00,ENE,68,0.0,0.0,76,0.00,,---,0.00,VWS V14.00,2013-12-26 15:38:00,
2013-12-26 10:43:00,69.2,61.0,30.00,NE,45,3.5,3.5,75,0.00,,---,0.00,VWS V14.00,2013-12-26 15:43:00,
2013-12-26 10:48:00,69.4,61.1,30.00,NE,45,6.0,6.0,75,0.00,,---,0.00,VWS V14.00,2013-12-26 15:48:00,
2013-12-26 10:53:00,69.9,61.2,30.00,ESE,112,3.3,3.3,74,0.00,,---,0.00,VWS V14.00,2013-12-26 15:53:00,
2013-12-26 10:58:00,69.9,60.9,30.00,ENE,68,1.5,1.5,73,0.00,,---,0.00,VWS V14.00,2013-12-26 15:58:00,
2013-12-26 11:03:00,69.8,61.2,30.00,ENE,68,0.8,0.8,74,0.00,,---,0.00,VWS V14.00,2013-12-26 16:03:00,
2013-12-26 11:08:00,69.6,61.0,30.00,ENE,68,0.0,0.0,74,0.00,,---,0.00,VWS V14.00,2013-12-26 16:08:00,
2013-12-26 11:13:00,69.6,61.0,30.00,ENE,68,4.0,4.0,74,0.00,,---,0.00,VWS V14.00,2013-12-26 16:13:00,
2013-12-26 11:18:00,69.6,61.0,30.00,NE,45,0.0,0.0,74,0.00,,---,0.00,VWS V14.00,2013-12-26 16:18:00,
2013-12-26 11:23:00,69.8,61.2,30.00,East,90,2.4,2.4,74,0.00,,---,0.00,VWS V14.00,2013-12-26 16:23:00,
2013-12-26 11:28:00,70.3,61.6,30.00,East,90,0.0,0.0,74,0.00,,---,0.00,VWS V14.00,2013-12-26 16:28:00,
2013-12-26 11:33:00,71.2,61.7,29.99,ENE,68,0.0,0.0,72,0.00,,---,0.00,VWS V14.00,2013-12-26 16:33:00,
2013-12-26 11:38:00,71.4,61.9,29.99,NE,45,0.0,0.0,72,0.00,,---,0.00,VWS V14.00,2013-12-26 16:38:00,
2013-12-26 11:43:00,71.7,62.2,29.99,ESE,112,0.0,0.0,72,0.00,,---,0.00,VWS V14.00,2013-12-26 16:43:00,
2013-12-26 11:48:00,72.3,62.0,29.99,SE,135,2.0,2.0,70,0.00,,---,0.00,VWS V14.00,2013-12-26 16:48:00,
2013-12-26 11:53:00,72.6,62.3,29.99,ENE,68,6.9,6.9,70,0.00,,---,0.00,VWS V14.00,2013-12-26 16:53:00,
2013-12-26 11:58:00,72.5,62.2,29.99,East,90,0.0,0.0,70,0.00,,---,0.00,VWS V14.00,2013-12-26 16:58:00,
2013-12-26 12:03:00,72.5,62.2,29.99,ENE,68,2.4,2.4,70,0.00,,---,0.00,VWS V14.00,2013-12-26 17:03:00,
2013-12-26 12:08:00,72.6,62.3,29.98,East,90,0.0,0.0,70,0.00,,---,0.00,VWS V14.00,2013-12-26 17:08:00,
2013-12-26 12:13:00,72.8,62.0,29.98,SE,135,0.0,0.0,69,0.00,,---,0.00,VWS V14.00,2013-12-26 17:13:00,
2013-12-26 12:18:00,73.2,62.4,29.98,ENE,68,4.9,4.9,69,0.00,,---,0.00,VWS V14.00,2013-12-26 17:18:00,
2013-12-26 12:23:00,73.5,62.3,29.98,East,90,0.0,0.0,68,0.00,,---,0.00,VWS V14.00,2013-12-26 17:23:00,
2013-12-26 12:28:00,73.9,62.7,29.97,NE,45,0.0,0.0,68,0.00,,---,0.00,VWS V14.00,2013-12-26 17:28:00,
2013-12-26 12:33:00,74.4,62.7,29.97,ENE,68,2.6,2.6,67,0.00,,---,0.00,VWS V14.00,2013-12-26 17:33:00,
2013-12-26 12:38:00,74.6,62.9,29.97,East,90,1.3,1.3,67,0.00,,---,0.00,VWS V14.00,2013-12-26 17:38:00,
2013-12-26 12:43:00,75.0,62.9,29.96,SSE,158,0.0,0.0,66,0.00,,---,0.00,VWS V14.00,2013-12-26 17:43:00,
2013-12-26 12:48:00,75.2,63.1,29.96,ENE,68,1.3,1.3,66,0.00,,---,0.00,VWS V14.00,2013-12-26 17:48:00,
2013-12-26 12:53:00,75.5,63.4,29.96,NE,45,6.7,6.7,66,0.00,,---,0.00,VWS V14.00,2013-12-26 17:53:00,
2013-12-26 12:58:00,75.7,63.1,29.96,NE,45,2.6,2.6,65,0.00,,---,0.00,VWS V14.00,2013-12-26 17:58:00,
2013-12-26 13:03:00,75.9,63.3,29.95,SE,135,1.3,1.3,65,0.00,,---,0.00,VWS V14.00,2013-12-26 18:03:00,
2013-12-26 13:08:00,76.4,63.8,29.95,SE,135,0.0,0.0,65,0.00,,---,0.00,VWS V14.00,2013-12-26 18:08:00,
2013-12-26 13:13:00,76.8,63.7,29.95,SE,135,0.0,0.0,64,0.00,,---,0.00,VWS V14.00,2013-12-26 18:13:00,
2013-12-26 13:18:00,77.3,64.2,29.95,ENE,68,1.5,1.5,64,0.00,,---,0.00,VWS V14.00,2013-12-26 18:18:00,
2013-12-26 13:23:00,77.3,63.7,29.94,ESE,112,2.2,2.2,63,0.00,,---,0.00,VWS V14.00,2013-12-26 18:23:00,
2013-12-26 13:28:00,77.0,63.5,29.93,East,90,2.9,2.9,63,0.00,,---,0.00,VWS V14.00,2013-12-26 18:28:00,
2013-12-26 13:33:00,76.8,63.3,29.93,East,90,0.6,0.6,63,0.00,,---,0.00,VWS V14.00,2013-12-26 18:33:00,
2013-12-26 13:38:00,76.8,63.3,29.93,NE,45,0.0,0.0,63,0.00,,---,0.00,VWS V14.00,2013-12-26 18:38:00,
2013-12-26 13:43:00,76.6,63.1,29.93,East,90,0.0,0.0,63,0.00,,---,0.00,VWS V14.00,2013-12-26 18:43:00,
2013-12-26 13:48:00,76.2,62.7,29.93,ENE,68,2.2,2.2,63,0.00,,---,0.00,VWS V14.00,2013-12-26 18:48:00,
2013-12-26 13:53:00,76.2,62.7,29.93,East,90,0.0,0.0,63,0.00,,---,0.00,VWS V14.00,2013-12-26 18:53:00,
2013-12-26 13:58:00,76.6,63.1,29.93,ESE,112,1.5,1.5,63,0.00,,---,0.00,VWS V14.00,2013-12-26 18:58:00,
2013-12-26 14:03:00,76.8,63.3,29.92,NE,45,1.1,1.1,63,0.00,,---,0.00,VWS V14.00,2013-12-26 19:03:00,
2013-12-26 14:08:00,77.1,63.1,29.91,NE,45,6.4,6.4,62,0.00,,---,0.00,VWS V14.00,2013-12-26 19:08:00,
2013-12-26 14:13:00,77.5,63.5,29.92,ESE,112,2.4,4.9,62,0.00,,---,0.00,VWS V14.00,2013-12-26 19:13:00,
2013-12-26 14:18:00,77.9,63.8,29.92,ENE,68,0.8,0.8,62,0.00,,---,0.00,VWS V14.00,2013-12-26 19:18:00,
2013-12-26 14:23:00,78.2,63.7,29.91,ENE,68,3.3,3.3,61,0.00,,---,0.00,VWS V14.00,2013-12-26 19:23:00,
2013-12-26 14:28:00,78.4,63.4,29.90,East,90,3.8,3.8,60,0.00,,---,0.00,VWS V14.00,2013-12-26 19:28:00,
2013-12-26 14:33:00,78.6,63.6,29.90,NE,45,1.1,1.1,60,0.00,,---,0.00,VWS V14.00,2013-12-26 19:33:00,
2013-12-26 14:38:00,78.4,63.4,29.90,NE,45,0.0,0.0,60,0.00,,---,0.00,VWS V14.00,2013-12-26 19:38:00,
2013-12-26 14:43:00,78.6,63.6,29.91,NE,45,5.3,5.3,60,0.00,,---,0.00,VWS V14.00,2013-12-26 19:43:00,
2013-12-26 14:48:00,78.6,63.6,29.90,NE,45,3.5,3.5,60,0.00,,---,0.00,VWS V14.00,2013-12-26 19:48:00,
2013-12-26 14:53:00,78.6,63.1,29.90,East,90,0.0,0.0,59,0.00,,---,0.00,VWS V14.00,2013-12-26 19:53:00,
2013-12-26 14:58:00,78.4,62.9,29.90,ENE,68,0.0,0.0,59,0.00,,---,0.00,VWS V14.00,2013-12-26 19:58:00,
2013-12-26 15:03:00,78.0,62.5,29.90,SE,135,0.0,0.0,59,0.00,,---,0.00,VWS V14.00,2013-12-26 20:03:00,
2013-12-26 15:08:00,78.0,62.5,29.91,ENE,68,1.1,1.1,59,0.00,,---,0.00,VWS V14.00,2013-12-26 20:08:00,
2013-12-26 15:12:00,77.7,61.8,29.91,ENE,68,0.0,0.0,58,0.00,,---,0.00,VWS V14.00,2013-12-26 20:12:00,
2013-12-26 15:18:00,77.7,62.2,29.90,ESE,112,0.0,0.0,59,0.00,,---,0.00,VWS V14.00,2013-12-26 20:18:00,
2013-12-26 15:22:00,77.7,62.2,29.90,ESE,112,0.0,0.0,59,0.00,,---,0.00,VWS V14.00,2013-12-26 20:22:00,
2013-12-26 15:27:00,77.7,61.8,29.90,ENE,68,1.5,1.5,58,0.00,,---,0.00,VWS V14.00,2013-12-26 20:27:00,
2013-12-26 15:32:00,77.7,61.8,29.91,NE,45,0.8,0.8,58,0.00,,---,0.00,VWS V14.00,2013-12-26 20:32:00,
2013-12-26 15:37:00,77.5,61.6,29.91,NE,45,0.0,0.0,58,0.00,,---,0.00,VWS V14.00,2013-12-26 20:37:00,
2013-12-26 15:42:00,77.1,61.2,29.92,ENE,68,0.0,0.0,58,0.00,,---,0.00,VWS V14.00,2013-12-26 20:42:00,
2013-12-26 15:47:00,77.0,61.6,29.91,ENE,68,0.0,0.0,59,0.00,,---,0.00,VWS V14.00,2013-12-26 20:47:00,
2013-12-26 15:52:00,77.1,61.7,29.91,NE,45,0.0,0.0,59,0.00,,---,0.00,VWS V14.00,2013-12-26 20:52:00,
2013-12-26 15:57:00,76.8,60.4,29.91,ENE,68,3.8,3.8,57,0.00,,---,0.00,VWS V14.00,2013-12-26 20:57:00,
2013-12-26 16:02:00,76.8,60.4,29.91,ENE,68,0.0,0.0,57,0.00,,---,0.00,VWS V14.00,2013-12-26 21:02:00,
2013-12-26 16:07:00,76.8,60.9,29.91,ENE,68,0.0,0.0,58,0.00,,---,0.00,VWS V14.00,2013-12-26 21:07:00,
2013-12-26 16:12:00,76.6,61.2,29.91,ENE,68,0.0,0.0,59,0.00,,---,0.00,VWS V14.00,2013-12-26 21:12:00,
2013-12-26 16:17:00,76.6,61.2,29.91,ENE,68,0.0,0.0,59,0.00,,---,0.00,VWS V14.00,2013-12-26 21:17:00,
2013-12-26 16:22:00,76.2,60.8,29.90,NE,45,0.4,0.4,59,0.00,,---,0.00,VWS V14.00,2013-12-26 21:22:00,
2013-12-26 16:27:00,76.1,60.8,29.91,ENE,68,0.0,0.0,59,0.00,,---,0.00,VWS V14.00,2013-12-26 21:27:00,
2013-12-26 16:32:00,75.9,60.1,29.90,ENE,68,2.4,2.4,58,0.00,,---,0.00,VWS V14.00,2013-12-26 21:32:00,
2013-12-26 16:37:00,75.9,60.6,29.90,NE,45,1.7,1.7,59,0.00,,---,0.00,VWS V14.00,2013-12-26 21:37:00,
2013-12-26 16:42:00,75.9,60.6,29.91,ENE,68,0.0,0.0,59,0.00,,---,0.00,VWS V14.00,2013-12-26 21:42:00,
2013-12-26 16:47:00,75.9,61.0,29.92,North,0,0.0,0.0,60,0.00,,---,0.00,VWS V14.00,2013-12-26 21:47:00,
2013-12-26 16:52:00,75.0,61.6,29.92,North,0,0.0,0.0,63,0.00,,---,0.00,VWS V14.00,2013-12-26 21:52:00,
2013-12-26 16:57:00,74.3,61.3,29.92,NNE,22,1.3,1.3,64,0.00,,---,0.00,VWS V14.00,2013-12-26 21:57:00,
2013-12-26 17:02:00,73.2,60.7,29.92,North,0,0.0,0.0,65,0.00,,---,0.00,VWS V14.00,2013-12-26 22:02:00,
2013-12-26 17:07:00,72.3,60.7,29.92,North,0,0.0,0.0,67,0.00,,---,0.00,VWS V14.00,2013-12-26 22:07:00,
2013-12-26 17:12:00,71.7,60.6,29.93,NE,45,0.0,0.0,68,0.00,,---,0.00,VWS V14.00,2013-12-26 22:12:00,
2013-12-26 17:17:00,71.2,60.5,29.93,ENE,68,0.0,0.0,69,0.00,,---,0.00,VWS V14.00,2013-12-26 22:17:00,
2013-12-26 17:22:00,70.8,60.5,29.93,ENE,68,0.0,0.0,70,0.00,,---,0.00,VWS V14.00,2013-12-26 22:22:00,
2013-12-26 17:27:00,70.5,60.3,29.93,NE,45,0.0,0.0,70,0.00,,---,0.00,VWS V14.00,2013-12-26 22:27:00,
2013-12-26 17:32:00,70.3,60.5,29.93,NE,45,0.0,0.0,71,0.00,,---,0.00,VWS V14.00,2013-12-26 22:32:00,
2013-12-26 17:35:00,70.1,60.3,29.93,NE,45,0.0,0.0,71,0.00,,---,0.00,VWS V14.00,2013-12-26 22:35:00,
2013-12-26 17:40:00,70.1,60.7,29.93,NE,45,0.0,0.0,72,0.00,,---,0.00,VWS V14.00,2013-12-26 22:40:00,
2013-12-26 17:45:00,69.9,60.5,29.94,ENE,68,0.0,0.0,72,0.00,,---,0.00,VWS V14.00,2013-12-26 22:45:00,
2013-12-26 17:50:00,69.9,60.5,29.94,ENE,68,0.0,0.0,72,0.00,,---,0.00,VWS V14.00,2013-12-26 22:50:00,
2013-12-26 17:55:00,69.8,60.8,29.94,ENE,68,0.0,0.0,73,0.00,,---,0.00,VWS V14.00,2013-12-26 22:55:00,
2013-12-26 18:00:00,69.6,60.6,29.94,ENE,68,0.0,0.0,73,0.00,,---,0.00,VWS V14.00,2013-12-26 23:00:00,
2013-12-26 18:05:00,69.6,60.6,29.93,ENE,68,0.0,0.0,73,0.00,,---,0.00,VWS V14.00,2013-12-26 23:05:00,
2013-12-26 18:10:00,69.6,60.6,29.93,NE,45,0.0,0.0,73,0.00,,---,0.00,VWS V14.00,2013-12-26 23:10:00,
2013-12-26 18:15:00,69.6,61.0,29.94,NE,45,0.0,0.0,74,0.00,,---,0.00,VWS V14.00,2013-12-26 23:15:00,
2013-12-26 18:20:00,69.6,61.0,29.93,NE,45,0.0,0.0,74,0.00,,---,0.00,VWS V14.00,2013-12-26 23:20:00,
2013-12-26 18:25:00,69.6,61.0,29.94,NNW,338,0.0,0.0,74,0.00,,---,0.00,VWS V14.00,2013-12-26 23:25:00,
2013-12-26 18:30:00,69.6,61.0,29.94,NE,45,0.0,0.0,74,0.00,,---,0.00,VWS V14.00,2013-12-26 23:30:00,
2013-12-26 18:35:00,69.6,61.0,29.94,NE,45,0.0,0.0,74,0.00,,---,0.00,VWS V14.00,2013-12-26 23:35:00,
2013-12-26 18:36:00,69.6,61.0,29.94,NE,45,0.0,0.0,74,0.00,,---,0.00,VWS V14.00,2013-12-26 23:36:00,
2013-12-26 18:41:00,69.4,60.8,29.95,NE,45,0.4,0.4,74,0.00,,---,0.00,VWS V14.00,2013-12-26 23:41:00,
2013-12-26 18:42:00,69.6,61.0,29.95,NE,45,0.0,0.0,74,0.00,,---,0.00,VWS V14.00,2013-12-26 23:42:00,
2013-12-26 18:47:00,69.6,60.6,29.95,NE,45,0.0,0.0,73,0.00,,---,0.00,VWS V14.00,2013-12-26 23:47:00,
2013-12-26 18:49:00,69.4,60.4,29.95,ESE,112,0.0,0.0,73,0.00,,---,0.00,VWS V14.00,2013-12-26 23:49:00,
2013-12-26 18:54:00,69.4,60.4,29.95,ENE,68,0.0,0.0,73,0.00,,---,0.00,VWS V14.00,2013-12-26 23:54:00,
2013-12-26 18:59:00,69.4,60.4,29.95,NE,45,0.0,0.0,73,0.00,,---,0.00,VWS V14.00,2013-12-26 23:59:00,
2013-12-26 19:04:00,69.4,60.4,29.95,NE,45,0.0,0.0,73,0.00,,---,0.00,VWS V14.00,2013-12-27 00:04:00,
2013-12-26 19:09:00,69.4,60.4,29.96,NE,45,0.0,0.0,73,0.00,,---,0.00,VWS V14.00,2013-12-27 00:09:00,
2013-12-26 19:14:00,69.4,60.4,29.96,NE,45,0.0,0.0,73,0.00,,---,0.00,VWS V14.00,2013-12-27 00:14:00,
2013-12-26 19:19:00,69.4,60.4,29.96,NE,45,4.2,4.2,73,0.00,,---,0.00,VWS V14.00,2013-12-27 00:19:00,
2013-12-26 19:24:00,69.6,60.6,29.96,NE,45,0.0,0.0,73,0.00,,---,0.00,VWS V14.00,2013-12-27 00:24:00,
2013-12-26 19:29:00,69.6,61.0,29.96,ENE,68,4.4,4.4,74,0.00,,---,0.00,VWS V14.00,2013-12-27 00:29:00,
2013-12-26 19:33:00,69.6,61.0,29.96,ENE,68,4.9,4.9,74,0.00,,---,0.00,VWS V14.00,2013-12-27 00:33:00,
2013-12-26 19:38:00,69.6,61.0,29.95,NE,45,0.0,0.0,74,0.00,,---,0.00,VWS V14.00,2013-12-27 00:38:00,
2013-12-26 19:43:00,69.6,61.0,29.96,NE,45,3.1,3.1,74,0.00,,---,0.00,VWS V14.00,2013-12-27 00:43:00,
2013-12-26 19:48:00,69.6,61.0,29.96,NE,45,0.0,0.0,74,0.00,,---,0.00,VWS V14.00,2013-12-27 00:48:00,
2013-12-26 19:53:00,69.6,61.0,29.97,NE,45,0.0,0.0,74,0.00,,---,0.00,VWS V14.00,2013-12-27 00:53:00,
2013-12-26 19:58:00,69.6,61.0,29.97,NNE,22,0.0,0.0,74,0.00,,---,0.00,VWS V14.00,2013-12-27 00:58:00,
2013-12-26 20:03:00,69.6,61.0,29.97,ENE,68,9.1,9.1,74,0.00,,---,0.00,VWS V14.00,2013-12-27 01:03:00,
2013-12-26 20:08:00,69.6,61.0,29.97,NE,45,1.3,1.3,74,0.00,,---,0.00,VWS V14.00,2013-12-27 01:08:00,
2013-12-26 20:13:00,69.6,61.3,29.96,NE,45,0.0,0.0,75,0.00,,---,0.00,VWS V14.00,2013-12-27 01:13:00,
2013-12-26 20:18:00,69.6,61.3,29.96,ENE,68,11.6,11.6,75,0.00,,---,0.00,VWS V14.00,2013-12-27 01:18:00,
2013-12-26 20:23:00,69.6,61.3,29.97,NE,45,0.0,0.0,75,0.00,,---,0.00,VWS V14.00,2013-12-27 01:23:00,
2013-12-26 20:28:00,69.6,61.3,29.97,NE,45,0.0,0.0,75,0.00,,---,0.00,VWS V14.00,2013-12-27 01:28:00,
2013-12-26 20:33:00,69.6,61.3,29.97,NE,45,4.6,4.6,75,0.00,,---,0.00,VWS V14.00,2013-12-27 01:33:00,
2013-12-26 20:38:00,69.6,61.3,29.96,NE,45,6.9,6.9,75,0.00,,---,0.00,VWS V14.00,2013-12-27 01:38:00,
2013-12-26 20:43:00,69.6,61.7,29.97,ENE,68,9.1,9.1,76,0.00,,---,0.00,VWS V14.00,2013-12-27 01:43:00,
2013-12-26 20:48:00,69.6,61.7,29.97,NE,45,4.2,4.2,76,0.00,,---,0.00,VWS V14.00,2013-12-27 01:48:00,
2013-12-26 20:53:00,69.8,61.9,29.97,NE,45,2.6,2.6,76,0.00,,---,0.00,VWS V14.00,2013-12-27 01:53:00,
2013-12-26 20:58:00,69.9,62.0,29.98,NE,45,0.6,0.6,76,0.00,,---,0.00,VWS V14.00,2013-12-27 01:58:00,
2013-12-26 21:03:00,69.9,62.0,29.97,NE,45,2.0,2.0,76,0.00,,---,0.00,VWS V14.00,2013-12-27 02:03:00,
2013-12-26 21:08:00,69.9,62.0,29.98,ENE,68,4.9,4.9,76,0.00,,---,0.00,VWS V14.00,2013-12-27 02:08:00,
2013-12-26 21:13:00,69.8,61.9,29.98,ENE,68,3.3,3.3,76,0.00,,---,0.00,VWS V14.00,2013-12-27 02:13:00,
2013-12-26 21:18:00,69.6,61.7,29.97,ENE,68,4.2,4.2,76,0.00,,---,0.00,VWS V14.00,2013-12-27 02:18:00,
2013-12-26 21:23:00,69.6,61.7,29.97,NE,45,10.0,10.0,76,0.00,,---,0.00,VWS V14.00,2013-12-27 02:23:00,
2013-12-26 21:28:00,69.6,61.7,29.98,NE,45,4.0,4.0,76,0.00,,---,0.00,VWS V14.00,2013-12-27 02:28:00,
2013-12-26 21:33:00,69.6,61.7,29.98,NNE,22,1.1,1.1,76,0.00,,---,0.00,VWS V14.00,2013-12-27 02:33:00,
2013-12-26 21:38:00,69.6,61.7,29.98,NE,45,3.5,3.5,76,0.00,,---,0.00,VWS V14.00,2013-12-27 02:38:00,
2013-12-26 21:43:00,69.6,61.7,29.98,NE,45,5.8,5.8,76,0.00,,---,0.00,VWS V14.00,2013-12-27 02:43:00,
2013-12-26 21:48:00,69.6,62.1,29.98,East,90,3.8,3.8,77,0.00,,---,0.00,VWS V14.00,2013-12-27 02:48:00,
2013-12-26 21:53:00,69.6,62.1,29.98,ENE,68,4.6,4.6,77,0.00,,---,0.00,VWS V14.00,2013-12-27 02:53:00,
2013-12-26 21:58:00,69.4,61.9,29.99,NE,45,0.0,0.0,77,0.00,,---,0.00,VWS V14.00,2013-12-27 02:58:00,
2013-12-26 22:03:00,69.4,61.9,29.98,ENE,68,4.9,4.9,77,0.00,,---,0.00,VWS V14.00,2013-12-27 03:03:00,
2013-12-26 22:08:00,69.4,61.9,29.99,NE,45,6.2,6.2,77,0.00,,---,0.00,VWS V14.00,2013-12-27 03:08:00,
2013-12-26 22:13:00,69.2,61.7,29.99,ENE,68,6.2,6.2,77,0.00,,---,0.00,VWS V14.00,2013-12-27 03:13:00,
2013-12-26 22:18:00,69.0,61.5,29.99,NE,45,2.0,2.0,77,0.00,,---,0.00,VWS V14.00,2013-12-27 03:18:00,
2013-12-26 22:23:00,69.0,61.9,29.99,ENE,68,6.7,6.7,78,0.00,,---,0.00,VWS V14.00,2013-12-27 03:23:00,
2013-12-26 22:28:00,68.9,61.8,29.99,ENE,68,1.1,1.1,78,0.00,,---,0.00,VWS V14.00,2013-12-27 03:28:00,
2013-12-26 22:33:00,68.9,61.8,29.99,ENE,68,3.1,3.1,78,0.00,,---,0.00,VWS V14.00,2013-12-27 03:33:00,
2013-12-26 22:38:00,68.7,61.6,29.99,East,90,1.3,1.3,78,0.00,,---,0.00,VWS V14.00,2013-12-27 03:38:00,
2013-12-26 22:43:00,68.7,61.6,29.99,ENE,68,7.1,7.1,78,0.00,,---,0.00,VWS V14.00,2013-12-27 03:43:00,
2013-12-26 22:48:00,68.7,61.9,29.99,ENE,68,4.4,4.4,79,0.00,,---,0.00,VWS V14.00,2013-12-27 03:48:00,
2013-12-26 22:53:00,68.5,61.7,29.99,NE,45,6.0,6.0,79,0.00,,---,0.00,VWS V14.00,2013-12-27 03:53:00,
2013-12-26 22:58:00,68.5,61.7,29.98,ENE,68,3.5,3.5,79,0.00,,---,0.00,VWS V14.00,2013-12-27 03:58:00,
2013-12-26 23:03:00,68.3,61.5,29.98,ENE,68,1.7,1.7,79,0.00,,---,0.00,VWS V14.00,2013-12-27 04:03:00,
2013-12-26 23:08:00,68.1,61.3,29.99,ENE,68,0.8,0.8,79,0.00,,---,0.00,VWS V14.00,2013-12-27 04:08:00,
2013-12-26 23:13:00,68.1,61.3,29.99,East,90,2.9,2.9,79,0.00,,---,0.00,VWS V14.00,2013-12-27 04:13:00,
2013-12-26 23:18:00,68.1,61.3,29.99,East,90,6.2,6.2,79,0.00,,---,0.00,VWS V14.00,2013-12-27 04:18:00,
2013-12-26 23:23:00,68.1,61.7,29.98,East,90,4.0,4.0,80,0.00,,---,0.00,VWS V14.00,2013-12-27 04:23:00,
2013-12-26 23:28:00,68.1,61.7,29.98,East,90,0.4,0.4,80,0.00,,---,0.00,VWS V14.00,2013-12-27 04:28:00,
2013-12-26 23:33:00,67.8,61.1,29.99,NE,45,3.8,3.8,79,0.00,,---,0.00,VWS V14.00,2013-12-27 04:33:00,
2013-12-26 23:38:00,67.8,61.4,29.98,ENE,68,1.3,1.3,80,0.00,,---,0.00,VWS V14.00,2013-12-27 04:38:00,
2013-12-26 23:43:00,67.8,61.4,29.99,ENE,68,2.0,2.0,80,0.00,,---,0.00,VWS V14.00,2013-12-27 04:43:00,
2013-12-26 23:48:00,67.8,61.4,29.99,East,90,0.8,0.8,80,0.00,,---,0.00,VWS V14.00,2013-12-27 04:48:00,
2013-12-26 23:53:00,67.8,61.4,29.98,ENE,68,2.6,2.6,80,0.00,,---,0.00,VWS V14.00,2013-12-27 04:53:00,
2013-12-26 23:58:00,67.8,61.4,29.98,ENE,68,0.0,0.0,80,0.00,,---,0.00,VWS V14.00,2013-12-27 04:58:00,